sensor_id;sensor_type;location;lat;lon;timestamp;pressure;altitude;pressure_sealevel;temperature
15701;BMP180;7950;42.744;23.174;2023-08-08T00:01:46;94262.88;;;17.64
15701;BMP180;7950;42.744;23.174;2023-08-08T00:04:15;94257.97;;;17.58
15701;BMP180;7950;42.744;23.174;2023-08-08T00:06:43;94260.22;;;17.51
15701;BMP180;7950;42.744;23.174;2023-08-08T00:09:13;94272.72;;;17.50
15701;BMP180;7950;42.744;23.174;2023-08-08T00:11:42;94284.19;;;17.46
15701;BMP180;7950;42.744;23.174;2023-08-08T00:14:10;94272.63;;;17.42
15701;BMP180;7950;42.744;23.174;2023-08-08T00:16:39;94271.84;;;17.41
15701;BMP180;7950;42.744;23.174;2023-08-08T00:19:08;94273.78;;;17.36
15701;BMP180;7950;42.744;23.174;2023-08-08T00:21:36;94283.00;;;17.38
15701;BMP180;7950;42.744;23.174;2023-08-08T00:24:05;94283.72;;;17.44
15701;BMP180;7950;42.744;23.174;2023-08-08T00:26:35;94286.16;;;17.40
15701;BMP180;7950;42.744;23.174;2023-08-08T00:29:03;94284.72;;;17.48
15701;BMP180;7950;42.744;23.174;2023-08-08T00:31:33;94287.47;;;17.43
15701;BMP180;7950;42.744;23.174;2023-08-08T00:34:02;94278.09;;;17.32
15701;BMP180;7950;42.744;23.174;2023-08-08T00:36:30;94278.47;;;17.25
15701;BMP180;7950;42.744;23.174;2023-08-08T00:38:59;94280.03;;;17.13
15701;BMP180;7950;42.744;23.174;2023-08-08T00:41:27;94287.09;;;17.04
15701;BMP180;7950;42.744;23.174;2023-08-08T00:43:57;94298.28;;;17.01
15701;BMP180;7950;42.744;23.174;2023-08-08T00:46:26;94293.16;;;17.04
15701;BMP180;7950;42.744;23.174;2023-08-08T00:48:54;94304.38;;;17.01
15701;BMP180;7950;42.744;23.174;2023-08-08T00:51:24;94306.00;;;16.84
15701;BMP180;7950;42.744;23.174;2023-08-08T00:53:54;94301.16;;;16.72
15701;BMP180;7950;42.744;23.174;2023-08-08T00:56:23;94313.47;;;16.63
15701;BMP180;7950;42.744;23.174;2023-08-08T00:58:51;94309.91;;;16.35
15701;BMP180;7950;42.744;23.174;2023-08-08T01:01:21;94310.09;;;16.44
15701;BMP180;7950;42.744;23.174;2023-08-08T01:03:50;94319.84;;;16.25
15701;BMP180;7950;42.744;23.174;2023-08-08T01:06:29;94322.00;;;16.04
15701;BMP180;7950;42.744;23.174;2023-08-08T01:09:05;94314.06;;;16.04
15701;BMP180;7950;42.744;23.174;2023-08-08T01:11:37;94316.69;;;16.04
15701;BMP180;7950;42.744;23.174;2023-08-08T01:14:07;94319.28;;;16.09
15701;BMP180;7950;42.744;23.174;2023-08-08T01:16:39;94323.94;;;16.17
15701;BMP180;7950;42.744;23.174;2023-08-08T01:19:11;94321.06;;;16.14
15701;BMP180;7950;42.744;23.174;2023-08-08T01:21:44;94324.81;;;16.13
15701;BMP180;7950;42.744;23.174;2023-08-08T01:24:18;94316.69;;;16.04
15701;BMP180;7950;42.744;23.174;2023-08-08T01:26:49;94325.56;;;16.13
15701;BMP180;7950;42.744;23.174;2023-08-08T01:29:17;94328.22;;;16.13
15701;BMP180;7950;42.744;23.174;2023-08-08T01:31:46;94342.47;;;15.99
15701;BMP180;7950;42.744;23.174;2023-08-08T01:34:15;94339.22;;;16.02
15701;BMP180;7950;42.744;23.174;2023-08-08T01:36:49;94336.81;;;16.05
15701;BMP180;7950;42.744;23.174;2023-08-08T01:39:26;94344.88;;;15.95
15701;BMP180;7950;42.744;23.174;2023-08-08T01:41:56;94340.22;;;15.87
15701;BMP180;7950;42.744;23.174;2023-08-08T01:44:29;94347.03;;;15.93
15701;BMP180;7950;42.744;23.174;2023-08-08T01:46:59;94345.47;;;15.92
15701;BMP180;7950;42.744;23.174;2023-08-08T01:49:30;94340.59;;;15.99
15701;BMP180;7950;42.744;23.174;2023-08-08T01:51:59;94350.81;;;16.06
15701;BMP180;7950;42.744;23.174;2023-08-08T01:54:29;94352.19;;;16.03
15701;BMP180;7950;42.744;23.174;2023-08-08T01:56:58;94348.91;;;16.11
15701;BMP180;7950;42.744;23.174;2023-08-08T01:59:26;94353.63;;;16.14
15701;BMP180;7950;42.744;23.174;2023-08-08T02:01:55;94359.91;;;16.18
15701;BMP180;7950;42.744;23.174;2023-08-08T02:04:24;94355.28;;;16.10
15701;BMP180;7950;42.744;23.174;2023-08-08T02:06:53;94371.00;;;16.20
15701;BMP180;7950;42.744;23.174;2023-08-08T02:09:21;94366.78;;;16.19
15701;BMP180;7950;42.744;23.174;2023-08-08T02:11:51;94365.09;;;16.28
15701;BMP180;7950;42.744;23.174;2023-08-08T02:14:20;94353.25;;;16.39
15701;BMP180;7950;42.744;23.174;2023-08-08T02:16:48;94363.94;;;16.34
15701;BMP180;7950;42.744;23.174;2023-08-08T02:19:17;94370.34;;;16.10
15701;BMP180;7950;42.744;23.174;2023-08-08T02:21:46;94376.50;;;16.05
15701;BMP180;7950;42.744;23.174;2023-08-08T02:24:14;94383.13;;;16.03
15701;BMP180;7950;42.744;23.174;2023-08-08T02:26:43;94370.56;;;15.95
15701;BMP180;7950;42.744;23.174;2023-08-08T02:29:13;94367.84;;;16.00
15701;BMP180;7950;42.744;23.174;2023-08-08T02:31:41;94368.25;;;16.07
15701;BMP180;7950;42.744;23.174;2023-08-08T02:34:10;94380.78;;;16.01
15701;BMP180;7950;42.744;23.174;2023-08-08T02:36:38;94392.66;;;16.04
15701;BMP180;7950;42.744;23.174;2023-08-08T02:39:07;94386.22;;;16.10
15701;BMP180;7950;42.744;23.174;2023-08-08T02:41:35;94388.53;;;16.16
15701;BMP180;7950;42.744;23.174;2023-08-08T02:44:04;94366.00;;;16.19
15701;BMP180;7950;42.744;23.174;2023-08-08T02:46:34;94381.03;;;16.23
15701;BMP180;7950;42.744;23.174;2023-08-08T02:49:04;94385.16;;;16.11
15701;BMP180;7950;42.744;23.174;2023-08-08T02:51:33;94399.97;;;16.30
15701;BMP180;7950;42.744;23.174;2023-08-08T02:54:02;94409.06;;;16.24
15701;BMP180;7950;42.744;23.174;2023-08-08T02:56:30;94403.59;;;16.16
15701;BMP180;7950;42.744;23.174;2023-08-08T02:58:59;94397.03;;;16.13
15701;BMP180;7950;42.744;23.174;2023-08-08T03:01:27;94402.84;;;16.15
15701;BMP180;7950;42.744;23.174;2023-08-08T03:03:57;94410.78;;;16.15
15701;BMP180;7950;42.744;23.174;2023-08-08T03:06:26;94415.22;;;16.20
15701;BMP180;7950;42.744;23.174;2023-08-08T03:08:55;94405.97;;;16.17
15701;BMP180;7950;42.744;23.174;2023-08-08T03:11:24;94409.41;;;16.18
15701;BMP180;7950;42.744;23.174;2023-08-08T03:13:52;94417.50;;;16.26
15701;BMP180;7950;42.744;23.174;2023-08-08T03:16:21;94419.94;;;16.23
15701;BMP180;7950;42.744;23.174;2023-08-08T03:18:50;94418.38;;;16.22
15701;BMP180;7950;42.744;23.174;2023-08-08T03:21:19;94416.16;;;16.29
15701;BMP180;7950;42.744;23.174;2023-08-08T03:23:48;94412.09;;;16.36
15701;BMP180;7950;42.744;23.174;2023-08-08T03:26:16;94416.81;;;16.39
15701;BMP180;7950;42.744;23.174;2023-08-08T03:28:45;94422.44;;;16.33
15701;BMP180;7950;42.744;23.174;2023-08-08T03:31:17;94425.34;;;16.36
15701;BMP180;7950;42.744;23.174;2023-08-08T03:33:46;65556.66;;;-139.30
15701;BMP180;7950;42.744;23.174;2023-08-08T03:36:15;65556.66;;;-139.30
15701;BMP180;7950;42.744;23.174;2023-08-08T03:38:45;65556.66;;;-139.30
15701;BMP180;7950;42.744;23.174;2023-08-08T03:41:14;65556.66;;;-139.30
15701;BMP180;7950;42.744;23.174;2023-08-08T03:43:43;65556.66;;;-139.30
15701;BMP180;7950;42.744;23.174;2023-08-08T03:46:11;65556.66;;;-139.30
15701;BMP180;7950;42.744;23.174;2023-08-08T03:48:40;65556.66;;;-139.30
15701;BMP180;7950;42.744;23.174;2023-08-08T03:51:08;65556.66;;;-139.30
15701;BMP180;7950;42.744;23.174;2023-08-08T03:53:37;65556.66;;;-139.30
15701;BMP180;7950;42.744;23.174;2023-08-08T03:56:07;65556.66;;;-139.30
15701;BMP180;7950;42.744;23.174;2023-08-08T03:58:35;65556.66;;;-139.30
15701;BMP180;7950;42.744;23.174;2023-08-08T04:01:04;65556.66;;;-139.30
15701;BMP180;7950;42.744;23.174;2023-08-08T04:03:32;94454.50;;;16.55
15701;BMP180;7950;42.744;23.174;2023-08-08T04:06:01;94453.72;;;16.55
15701;BMP180;7950;42.744;23.174;2023-08-08T04:08:30;65556.66;;;-139.30
15701;BMP180;7950;42.744;23.174;2023-08-08T04:10:59;65556.66;;;-139.30
15701;BMP180;7950;42.744;23.174;2023-08-08T04:13:28;65556.66;;;-139.30
15701;BMP180;7950;42.744;23.174;2023-08-08T04:15:57;65556.66;;;-139.30
15701;BMP180;7950;42.744;23.174;2023-08-08T04:18:26;65556.66;;;-139.30
15701;BMP180;7950;42.744;23.174;2023-08-08T04:20:54;94460.38;;;16.71
15701;BMP180;7950;42.744;23.174;2023-08-08T04:23:23;94472.53;;;16.72
15701;BMP180;7950;42.744;23.174;2023-08-08T04:25:53;94480.19;;;16.73
15701;BMP180;7950;42.744;23.174;2023-08-08T04:28:22;94472.59;;;16.67
15701;BMP180;7950;42.744;23.174;2023-08-08T04:30:52;94456.63;;;16.72
15701;BMP180;7950;42.744;23.174;2023-08-08T04:33:21;94454.72;;;16.77
15701;BMP180;7950;42.744;23.174;2023-08-08T04:35:49;94451.84;;;16.74
15701;BMP180;7950;42.744;23.174;2023-08-08T04:38:18;94439.06;;;16.81
15701;BMP180;7950;42.744;23.174;2023-08-08T04:40:46;94448.50;;;16.87
15701;BMP180;7950;42.744;23.174;2023-08-08T04:43:15;94470.44;;;16.87
15701;BMP180;7950;42.744;23.174;2023-08-08T04:45:43;94477.34;;;16.88
15701;BMP180;7950;42.744;23.174;2023-08-08T04:48:13;94480.00;;;16.88
15701;BMP180;7950;42.744;23.174;2023-08-08T04:50:42;94486.72;;;16.99
15701;BMP180;7950;42.744;23.174;2023-08-08T04:53:10;94493.94;;;16.94
15701;BMP180;7950;42.744;23.174;2023-08-08T04:55:39;94504.69;;;17.02
15701;BMP180;7950;42.744;23.174;2023-08-08T04:58:07;94511.13;;;17.15
15701;BMP180;7950;42.744;23.174;2023-08-08T05:00:36;94519.53;;;17.03
15701;BMP180;7950;42.744;23.174;2023-08-08T05:03:05;94528.84;;;17.01
15701;BMP180;7950;42.744;23.174;2023-08-08T05:05:35;94535.22;;;17.00
15701;BMP180;7950;42.744;23.174;2023-08-08T05:08:04;94524.22;;;17.25
15701;BMP180;7950;42.744;23.174;2023-08-08T05:10:32;94521.13;;;17.41
15701;BMP180;7950;42.744;23.174;2023-08-08T05:13:01;94522.09;;;17.45
15701;BMP180;7950;42.744;23.174;2023-08-08T05:15:29;94519.63;;;17.67
15701;BMP180;7950;42.744;23.174;2023-08-08T05:17:58;94516.19;;;17.67
15701;BMP180;7950;42.744;23.174;2023-08-08T05:20:27;94516.41;;;17.84
15701;BMP180;7950;42.744;23.174;2023-08-08T05:22:56;94520.41;;;17.68
15701;BMP180;7950;42.744;23.174;2023-08-08T05:25:25;94540.63;;;17.64
15701;BMP180;7950;42.744;23.174;2023-08-08T05:27:54;94546.31;;;17.57
15701;BMP180;7950;42.744;23.174;2023-08-08T05:30:24;94554.22;;;17.44
15701;BMP180;7950;42.744;23.174;2023-08-08T05:32:52;94568.66;;;17.33
15701;BMP180;7950;42.744;23.174;2023-08-08T05:35:21;94565.16;;;17.37
15701;BMP180;7950;42.744;23.174;2023-08-08T05:37:49;94562.50;;;17.37
15701;BMP180;7950;42.744;23.174;2023-08-08T05:40:19;94562.59;;;17.14
15701;BMP180;7950;42.744;23.174;2023-08-08T05:42:48;94564.44;;;17.32
15701;BMP180;7950;42.744;23.174;2023-08-08T05:45:16;94569.97;;;17.17
15701;BMP180;7950;42.744;23.174;2023-08-08T05:47:45;94582.28;;;17.26
15701;BMP180;7950;42.744;23.174;2023-08-08T05:50:13;94579.34;;;17.28
15701;BMP180;7950;42.744;23.174;2023-08-08T05:52:42;94574.56;;;17.30
15701;BMP180;7950;42.744;23.174;2023-08-08T05:55:10;94580.34;;;17.32
15701;BMP180;7950;42.744;23.174;2023-08-08T05:57:40;94585.84;;;17.35
15701;BMP180;7950;42.744;23.174;2023-08-08T06:00:10;94574.31;;;17.26
15701;BMP180;7950;42.744;23.174;2023-08-08T06:02:39;94583.72;;;17.37
15701;BMP180;7950;42.744;23.174;2023-08-08T06:05:10;94585.44;;;17.47
15701;BMP180;7950;42.744;23.174;2023-08-08T06:07:39;65556.66;;;-139.30
15701;BMP180;7950;42.744;23.174;2023-08-08T06:10:08;56476.75;;;-139.30
15701;BMP180;7950;42.744;23.174;2023-08-08T06:12:37;65556.66;;;-139.30
15701;BMP180;7950;42.744;23.174;2023-08-08T06:15:08;65556.66;;;-139.30
15701;BMP180;7950;42.744;23.174;2023-08-08T06:17:36;65556.66;;;-139.30
15701;BMP180;7950;42.744;23.174;2023-08-08T06:20:07;65556.66;;;-139.30
15701;BMP180;7950;42.744;23.174;2023-08-08T06:22:37;65556.66;;;-139.30
15701;BMP180;7950;42.744;23.174;2023-08-08T06:25:07;65556.66;;;-139.30
15701;BMP180;7950;42.744;23.174;2023-08-08T06:27:35;65556.66;;;-139.30
15701;BMP180;7950;42.744;23.174;2023-08-08T06:30:07;65556.66;;;-139.30
15701;BMP180;7950;42.744;23.174;2023-08-08T06:32:37;65556.66;;;-139.30
15701;BMP180;7950;42.744;23.174;2023-08-08T06:35:07;65556.66;;;-139.30
15701;BMP180;7950;42.744;23.174;2023-08-08T06:37:37;65556.66;;;-139.30
15701;BMP180;7950;42.744;23.174;2023-08-08T06:40:07;65556.66;;;-139.30
15701;BMP180;7950;42.744;23.174;2023-08-08T06:42:36;65556.66;;;-139.30
15701;BMP180;7950;42.744;23.174;2023-08-08T06:45:08;65556.66;;;-139.30
15701;BMP180;7950;42.744;23.174;2023-08-08T06:47:37;65556.66;;;-139.30
15701;BMP180;7950;42.744;23.174;2023-08-08T06:50:07;65556.66;;;-139.30
15701;BMP180;7950;42.744;23.174;2023-08-08T06:52:36;65556.66;;;-139.30
15701;BMP180;7950;42.744;23.174;2023-08-08T06:55:05;65556.66;;;-139.30
15701;BMP180;7950;42.744;23.174;2023-08-08T06:57:34;65556.66;;;-139.30
15701;BMP180;7950;42.744;23.174;2023-08-08T07:00:05;65556.66;;;-139.30
15701;BMP180;7950;42.744;23.174;2023-08-08T07:02:35;65556.66;;;-139.30
15701;BMP180;7950;42.744;23.174;2023-08-08T07:05:04;65556.66;;;-139.30
15701;BMP180;7950;42.744;23.174;2023-08-08T07:07:34;65556.66;;;-139.30
15701;BMP180;7950;42.744;23.174;2023-08-08T07:10:04;65556.66;;;-139.30
15701;BMP180;7950;42.744;23.174;2023-08-08T07:12:34;65556.66;;;-139.30
15701;BMP180;7950;42.744;23.174;2023-08-08T07:15:03;65556.66;;;-139.30
15701;BMP180;7950;42.744;23.174;2023-08-08T07:17:32;65556.66;;;-139.30
15701;BMP180;7950;42.744;23.174;2023-08-08T07:20:02;65556.66;;;-139.30
15701;BMP180;7950;42.744;23.174;2023-08-08T07:22:33;65556.66;;;-139.30
15701;BMP180;7950;42.744;23.174;2023-08-08T07:25:02;65556.66;;;-139.30
15701;BMP180;7950;42.744;23.174;2023-08-08T07:27:31;65556.66;;;-139.30
15701;BMP180;7950;42.744;23.174;2023-08-08T07:30:00;65556.66;;;-139.30
15701;BMP180;7950;42.744;23.174;2023-08-08T07:32:30;65556.66;;;-139.30
15701;BMP180;7950;42.744;23.174;2023-08-08T07:35:00;65556.66;;;-139.30
15701;BMP180;7950;42.744;23.174;2023-08-08T07:37:34;65556.66;;;-139.30
15701;BMP180;7950;42.744;23.174;2023-08-08T07:40:04;65556.66;;;-139.30
15701;BMP180;7950;42.744;23.174;2023-08-08T07:42:41;65556.66;;;-139.30
15701;BMP180;7950;42.744;23.174;2023-08-08T07:45:09;65556.66;;;-139.30
15701;BMP180;7950;42.744;23.174;2023-08-08T07:47:38;65556.66;;;-139.30
15701;BMP180;7950;42.744;23.174;2023-08-08T07:50:08;65556.66;;;-139.30
15701;BMP180;7950;42.744;23.174;2023-08-08T07:52:38;65556.66;;;-139.30
15701;BMP180;7950;42.744;23.174;2023-08-08T07:55:08;65556.66;;;-139.30
15701;BMP180;7950;42.744;23.174;2023-08-08T07:57:36;65556.66;;;-139.30
15701;BMP180;7950;42.744;23.174;2023-08-08T08:00:07;65556.66;;;-139.30
15701;BMP180;7950;42.744;23.174;2023-08-08T08:02:36;65556.66;;;-139.30
15701;BMP180;7950;42.744;23.174;2023-08-08T08:05:06;65556.66;;;-139.30
15701;BMP180;7950;42.744;23.174;2023-08-08T08:07:37;65556.66;;;-139.30
15701;BMP180;7950;42.744;23.174;2023-08-08T08:10:10;65556.66;;;-139.30
15701;BMP180;7950;42.744;23.174;2023-08-08T08:12:41;65556.66;;;-139.30
15701;BMP180;7950;42.744;23.174;2023-08-08T08:15:10;65556.66;;;-139.30
15701;BMP180;7950;42.744;23.174;2023-08-08T08:17:39;65556.66;;;-139.30
15701;BMP180;7950;42.744;23.174;2023-08-08T08:20:10;65556.66;;;-139.30
15701;BMP180;7950;42.744;23.174;2023-08-08T08:22:40;65556.66;;;-139.30
15701;BMP180;7950;42.744;23.174;2023-08-08T08:25:09;65556.66;;;-139.30
15701;BMP180;7950;42.744;23.174;2023-08-08T08:27:38;65556.66;;;-139.30
15701;BMP180;7950;42.744;23.174;2023-08-08T08:30:08;65556.66;;;-139.30
15701;BMP180;7950;42.744;23.174;2023-08-08T08:32:41;65556.66;;;-139.30
15701;BMP180;7950;42.744;23.174;2023-08-08T08:35:10;65556.66;;;-139.30
15701;BMP180;7950;42.744;23.174;2023-08-08T08:37:41;65556.66;;;-139.30
15701;BMP180;7950;42.744;23.174;2023-08-08T08:40:10;65556.66;;;-139.30
15701;BMP180;7950;42.744;23.174;2023-08-08T08:42:40;65556.66;;;-139.30
15701;BMP180;7950;42.744;23.174;2023-08-08T08:45:09;65556.66;;;-139.30
15701;BMP180;7950;42.744;23.174;2023-08-08T08:47:41;65556.66;;;-139.30
15701;BMP180;7950;42.744;23.174;2023-08-08T08:50:10;65556.66;;;-139.30
15701;BMP180;7950;42.744;23.174;2023-08-08T08:52:40;65556.66;;;-139.30
15701;BMP180;7950;42.744;23.174;2023-08-08T08:55:10;65556.66;;;-139.30
15701;BMP180;7950;42.744;23.174;2023-08-08T08:57:39;65556.66;;;-139.30
15701;BMP180;7950;42.744;23.174;2023-08-08T09:00:09;65556.66;;;-139.30
15701;BMP180;7950;42.744;23.174;2023-08-08T09:02:38;65556.66;;;-139.30
15701;BMP180;7950;42.744;23.174;2023-08-08T09:05:08;65556.66;;;-139.30
15701;BMP180;7950;42.744;23.174;2023-08-08T09:07:37;65556.66;;;-139.30
15701;BMP180;7950;42.744;23.174;2023-08-08T09:10:08;65556.66;;;-139.30
15701;BMP180;7950;42.744;23.174;2023-08-08T09:12:37;65556.66;;;-139.30
15701;BMP180;7950;42.744;23.174;2023-08-08T09:15:07;65556.66;;;-139.30
15701;BMP180;7950;42.744;23.174;2023-08-08T09:17:40;65556.66;;;-139.30
15701;BMP180;7950;42.744;23.174;2023-08-08T09:20:17;65556.66;;;-139.30
15701;BMP180;7950;42.744;23.174;2023-08-08T09:22:46;65556.66;;;-139.30
15701;BMP180;7950;42.744;23.174;2023-08-08T09:25:16;65556.66;;;-139.30
15701;BMP180;7950;42.744;23.174;2023-08-08T09:27:45;65556.66;;;-139.30
15701;BMP180;7950;42.744;23.174;2023-08-08T09:30:15;65556.66;;;-139.30
15701;BMP180;7950;42.744;23.174;2023-08-08T09:32:44;65556.66;;;-139.30
15701;BMP180;7950;42.744;23.174;2023-08-08T09:35:14;65556.66;;;-139.30
15701;BMP180;7950;42.744;23.174;2023-08-08T09:37:43;65556.66;;;-139.30
15701;BMP180;7950;42.744;23.174;2023-08-08T09:40:11;65556.66;;;-139.30
15701;BMP180;7950;42.744;23.174;2023-08-08T09:42:42;65556.66;;;-139.30
15701;BMP180;7950;42.744;23.174;2023-08-08T09:45:10;65556.66;;;-139.30
15701;BMP180;7950;42.744;23.174;2023-08-08T09:47:39;65556.66;;;-139.30
15701;BMP180;7950;42.744;23.174;2023-08-08T09:50:08;65556.66;;;-139.30
15701;BMP180;7950;42.744;23.174;2023-08-08T09:52:37;65556.66;;;-139.30
15701;BMP180;7950;42.744;23.174;2023-08-08T09:55:07;65556.66;;;-139.30
15701;BMP180;7950;42.744;23.174;2023-08-08T09:57:39;65556.66;;;-139.30
15701;BMP180;7950;42.744;23.174;2023-08-08T10:00:11;65556.66;;;-139.30
15701;BMP180;7950;42.744;23.174;2023-08-08T10:02:44;65556.66;;;-139.30
15701;BMP180;7950;42.744;23.174;2023-08-08T10:05:15;65556.66;;;-139.30
15701;BMP180;7950;42.744;23.174;2023-08-08T10:07:45;65556.66;;;-139.30
15701;BMP180;7950;42.744;23.174;2023-08-08T10:10:14;65556.66;;;-139.30
15701;BMP180;7950;42.744;23.174;2023-08-08T10:12:47;65556.66;;;-139.30
15701;BMP180;7950;42.744;23.174;2023-08-08T10:15:18;94563.81;;;22.78
15701;BMP180;7950;42.744;23.174;2023-08-08T10:17:53;65556.66;;;-139.30
15701;BMP180;7950;42.744;23.174;2023-08-08T10:20:22;65556.66;;;-139.30
15701;BMP180;7950;42.744;23.174;2023-08-08T10:22:53;65556.66;;;-139.30
15701;BMP180;7950;42.744;23.174;2023-08-08T10:25:27;65556.66;;;-139.30
15701;BMP180;7950;42.744;23.174;2023-08-08T10:28:08;65556.66;;;-139.30
15701;BMP180;7950;42.744;23.174;2023-08-08T10:30:57;65556.66;;;-139.30
15701;BMP180;7950;42.744;23.174;2023-08-08T10:33:28;65556.66;;;-139.30
15701;BMP180;7950;42.744;23.174;2023-08-08T10:36:03;65556.66;;;-139.30
15701;BMP180;7950;42.744;23.174;2023-08-08T10:38:42;94571.56;;;23.00
15701;BMP180;7950;42.744;23.174;2023-08-08T10:41:13;65556.66;;;-139.30
15701;BMP180;7950;42.744;23.174;2023-08-08T10:43:51;65556.66;;;-139.30
15701;BMP180;7950;42.744;23.174;2023-08-08T10:46:26;65556.66;;;-139.30
15701;BMP180;7950;42.744;23.174;2023-08-08T10:48:58;65556.66;;;-139.30
15701;BMP180;7950;42.744;23.174;2023-08-08T10:51:35;65556.66;;;-139.30
15701;BMP180;7950;42.744;23.174;2023-08-08T10:54:05;65556.66;;;-139.30
15701;BMP180;7950;42.744;23.174;2023-08-08T10:56:35;65556.66;;;-139.30
15701;BMP180;7950;42.744;23.174;2023-08-08T10:59:15;65556.66;;;-139.30
15701;BMP180;7950;42.744;23.174;2023-08-08T11:01:50;65556.66;;;-139.30
15701;BMP180;7950;42.744;23.174;2023-08-08T11:04:22;65556.66;;;-139.30
15701;BMP180;7950;42.744;23.174;2023-08-08T11:06:54;65556.66;;;-139.30
15701;BMP180;7950;42.744;23.174;2023-08-08T11:09:22;65556.66;;;-139.30
15701;BMP180;7950;42.744;23.174;2023-08-08T11:11:53;65556.66;;;-139.30
15701;BMP180;7950;42.744;23.174;2023-08-08T11:14:22;65556.66;;;-139.30
15701;BMP180;7950;42.744;23.174;2023-08-08T11:16:53;65556.66;;;-139.30
15701;BMP180;7950;42.744;23.174;2023-08-08T11:19:22;65556.66;;;-139.30
15701;BMP180;7950;42.744;23.174;2023-08-08T11:21:51;65556.66;;;-139.30
15701;BMP180;7950;42.744;23.174;2023-08-08T11:24:20;65556.66;;;-139.30
15701;BMP180;7950;42.744;23.174;2023-08-08T11:26:48;65556.66;;;-139.30
15701;BMP180;7950;42.744;23.174;2023-08-08T11:29:18;65556.66;;;-139.30
15701;BMP180;7950;42.744;23.174;2023-08-08T11:31:48;65556.66;;;-139.30
15701;BMP180;7950;42.744;23.174;2023-08-08T11:34:18;65556.66;;;-139.30
15701;BMP180;7950;42.744;23.174;2023-08-08T11:36:47;65556.66;;;-139.30
15701;BMP180;7950;42.744;23.174;2023-08-08T11:39:17;94545.78;;;24.64
15701;BMP180;7950;42.744;23.174;2023-08-08T11:41:48;65556.66;;;-139.30
15701;BMP180;7950;42.744;23.174;2023-08-08T11:44:16;65556.66;;;-139.30
15701;BMP180;7950;42.744;23.174;2023-08-08T11:46:45;65556.66;;;-139.30
15701;BMP180;7950;42.744;23.174;2023-08-08T11:49:15;65556.66;;;-139.30
15701;BMP180;7950;42.744;23.174;2023-08-08T11:51:46;87891.25;;;24.78
15701;BMP180;7950;42.744;23.174;2023-08-08T11:54:15;101289.66;;;-139.30
15701;BMP180;7950;42.744;23.174;2023-08-08T11:56:43;94518.91;;;24.40
15701;BMP180;7950;42.744;23.174;2023-08-08T11:59:12;65556.66;;;-139.30
15701;BMP180;7950;42.744;23.174;2023-08-08T12:01:41;94521.97;;;24.50
15701;BMP180;7950;42.744;23.174;2023-08-08T12:04:11;94506.25;;;24.61
15701;BMP180;7950;42.744;23.174;2023-08-08T12:06:40;65556.66;;;-139.30
15701;BMP180;7950;42.744;23.174;2023-08-08T12:09:12;94503.00;;;24.67
15701;BMP180;7950;42.744;23.174;2023-08-08T12:11:42;65556.66;;;-139.30
15701;BMP180;7950;42.744;23.174;2023-08-08T12:14:12;65556.66;;;-139.30
15701;BMP180;7950;42.744;23.174;2023-08-08T12:16:42;65556.66;;;-139.30
15701;BMP180;7950;42.744;23.174;2023-08-08T12:19:12;65556.66;;;-139.30
15701;BMP180;7950;42.744;23.174;2023-08-08T12:21:45;65556.66;;;-139.30
15701;BMP180;7950;42.744;23.174;2023-08-08T12:24:14;65556.66;;;-139.30
15701;BMP180;7950;42.744;23.174;2023-08-08T12:26:43;94489.72;;;24.14
15701;BMP180;7950;42.744;23.174;2023-08-08T12:29:11;94477.34;;;24.46
15701;BMP180;7950;42.744;23.174;2023-08-08T12:31:40;94478.72;;;24.64
15701;BMP180;7950;42.744;23.174;2023-08-08T12:34:09;94475.25;;;24.87
15701;BMP180;7950;42.744;23.174;2023-08-08T12:36:38;65556.66;;;-139.30
15701;BMP180;7950;42.744;23.174;2023-08-08T12:39:06;65556.66;;;-139.30
15701;BMP180;7950;42.744;23.174;2023-08-08T12:41:36;65556.66;;;-139.30
15701;BMP180;7950;42.744;23.174;2023-08-08T12:44:05;65556.66;;;-139.30
15701;BMP180;7950;42.744;23.174;2023-08-08T12:46:35;65556.66;;;-139.30
15701;BMP180;7950;42.744;23.174;2023-08-08T12:49:04;65556.66;;;-139.30
15701;BMP180;7950;42.744;23.174;2023-08-08T12:51:32;65556.66;;;-139.30
15701;BMP180;7950;42.744;23.174;2023-08-08T12:54:01;65556.66;;;-139.30
15701;BMP180;7950;42.744;23.174;2023-08-08T12:56:29;65556.66;;;-139.30
15701;BMP180;7950;42.744;23.174;2023-08-08T12:58:59;65556.66;;;-139.30
15701;BMP180;7950;42.744;23.174;2023-08-08T13:01:30;65556.66;;;-139.30
15701;BMP180;7950;42.744;23.174;2023-08-08T13:03:59;94467.94;;;25.12
15701;BMP180;7950;42.744;23.174;2023-08-08T13:06:45;65556.66;;;-139.30
15701;BMP180;7950;42.744;23.174;2023-08-08T13:09:14;65556.66;;;-139.30
15701;BMP180;7950;42.744;23.174;2023-08-08T13:11:43;94467.94;;;25.12
15701;BMP180;7950;42.744;23.174;2023-08-08T13:14:13;94455.56;;;24.83
15701;BMP180;7950;42.744;23.174;2023-08-08T13:16:41;94456.38;;;24.72
15701;BMP180;7950;42.744;23.174;2023-08-08T13:19:10;94460.75;;;24.64
15701;BMP180;7950;42.744;23.174;2023-08-08T13:21:38;94459.13;;;24.39
15701;BMP180;7950;42.744;23.174;2023-08-08T13:26:37;94445.66;;;24.60
15701;BMP180;7950;42.744;23.174;2023-08-08T13:29:06;94442.84;;;24.80
15701;BMP180;7950;42.744;23.174;2023-08-08T13:31:36;94444.81;;;24.95
15701;BMP180;7950;42.744;23.174;2023-08-08T13:34:05;94446.47;;;25.12
15701;BMP180;7950;42.744;23.174;2023-08-08T13:36:34;94448.03;;;25.13
15701;BMP180;7950;42.744;23.174;2023-08-08T13:39:03;94447.66;;;25.26
15701;BMP180;7950;42.744;23.174;2023-08-08T13:41:31;94447.69;;;25.14
15701;BMP180;7950;42.744;23.174;2023-08-08T13:44:00;94452.41;;;25.29
15701;BMP180;7950;42.744;23.174;2023-08-08T13:46:28;94449.72;;;25.05
15701;BMP180;7950;42.744;23.174;2023-08-08T13:48:58;94451.25;;;25.18
15701;BMP180;7950;42.744;23.174;2023-08-08T13:51:27;94454.44;;;25.08
15701;BMP180;7950;42.744;23.174;2023-08-08T13:53:55;94461.09;;;25.26
15701;BMP180;7950;42.744;23.174;2023-08-08T13:56:24;94458.97;;;25.20
15701;BMP180;7950;42.744;23.174;2023-08-08T13:58:52;94454.72;;;25.19
15701;BMP180;7950;42.744;23.174;2023-08-08T14:01:21;94442.47;;;25.06
15701;BMP180;7950;42.744;23.174;2023-08-08T14:03:49;94447.75;;;25.02
15701;BMP180;7950;42.744;23.174;2023-08-08T14:06:19;94461.25;;;24.94
15701;BMP180;7950;42.744;23.174;2023-08-08T14:08:48;94449.63;;;24.90
15701;BMP180;7950;42.744;23.174;2023-08-08T14:11:16;94452.00;;;24.91
15701;BMP180;7950;42.744;23.174;2023-08-08T14:13:45;94453.31;;;24.97